Time;durP1;ratioP1;P1;durP2;ratioP2;P2;SDS_P1;SDS_P2;PMS_P1;PMS_P2;Temp;Humidity;BMP_temperature;BMP_pressure;BME280_temperature;BME280_humidity;BME280_pressure;Samples;Min_cycle;Max_cycle;Signal;HPM_P1;HPM_P2
2023/01/24 00:01:39;;;;;;;5.72;3.63;;;17.20;65.30;;;;;;5073328;28;20232;-65
2023/01/24 00:04:28;;;;;;;5.22;4.72;;;17.20;65.40;;;;;;5072092;28;20716;-62
2023/01/24 00:07:16;;;;;;;4.57;4.18;;;17.20;65.50;;;;;;5073833;28;20251;-65
2023/01/24 00:10:06;;;;;;;6.18;4.18;;;17.10;65.40;;;;;;5073223;28;20278;-65
2023/01/24 00:12:54;;;;;;;5.15;4.50;;;17.10;65.50;;;;;;5073120;28;20355;-62
2023/01/24 00:15:42;;;;;;;6.55;4.30;;;17.00;65.50;;;;;;5072599;28;20260;-64
2023/01/24 00:18:32;;;;;;;5.45;4.45;;;17.00;64.90;;;;;;5072673;28;20285;-64
2023/01/24 00:21:24;;;;;;;4.97;3.95;;;16.90;65.20;;;;;;5072775;28;20201;-63
2023/01/24 00:24:12;;;;;;;5.20;3.72;;;16.90;66.30;;;;;;5072585;28;20305;-65
2023/01/24 00:27:00;;;;;;;4.47;3.92;;;16.80;66.30;;;;;;5072451;28;20228;-63
2023/01/24 00:29:48;;;;;;;5.78;4.45;;;16.70;66.40;;;;;;5073377;28;20633;-62
2023/01/24 00:32:36;;;;;;;5.43;4.85;;;16.70;66.60;;;;;;5073403;28;20225;-61
2023/01/24 00:35:24;;;;;;;4.40;3.33;;;16.70;66.60;;;;;;5072715;28;20306;-65
2023/01/24 00:38:13;;;;;;;4.97;3.78;;;16.70;66.60;;;;;;5072141;28;20303;-63
2023/01/24 00:41:01;;;;;;;3.92;3.15;;;16.80;66.50;;;;;;5072043;28;20221;-64
2023/01/24 00:43:49;;;;;;;4.75;3.63;;;16.80;66.40;;;;;;5073291;28;20607;-65
2023/01/24 00:46:37;;;;;;;4.82;4.10;;;16.80;66.30;;;;;;5073562;28;20242;-64
2023/01/24 00:49:25;;;;;;;6.30;4.00;;;16.90;66.30;;;;;;5072297;28;20767;-63
2023/01/24 00:52:13;;;;;;;4.07;3.78;;;17.10;67.60;;;;;;5071935;28;20205;-61
2023/01/24 00:55:03;;;;;;;5.18;3.83;;;16.90;65.60;;;;;;5097180;22;20320;-59
2023/01/24 00:57:51;;;;;;;6.50;4.10;;;16.90;66.10;;;;;;5093128;28;20246;-59
2023/01/24 01:00:40;;;;;;;5.30;4.15;;;16.90;66.00;;;;;;5092944;28;20199;-59
2023/01/24 01:03:28;;;;;;;5.28;4.22;;;16.90;66.70;;;;;;5093437;28;20231;-59
2023/01/24 01:06:17;;;;;;;5.32;4.57;;;17.00;65.90;;;;;;5092880;28;20192;-61
2023/01/24 01:09:05;;;;;;;8.70;4.70;;;17.10;65.40;;;;;;5092173;28;20208;-59
2023/01/24 01:11:54;;;;;;;5.38;4.38;;;17.10;65.20;;;;;;5093587;28;20691;-59
2023/01/24 01:14:42;;;;;;;6.15;4.65;;;17.20;65.50;;;;;;5098462;28;20220;-59
2023/01/24 01:17:30;;;;;;;7.28;5.13;;;17.10;65.20;;;;;;5108170;28;20275;-60
2023/01/24 01:20:19;;;;;;;5.97;4.93;;;17.10;64.50;;;;;;5109834;28;20226;-60
2023/01/24 01:23:07;;;;;;;8.80;5.32;;;16.80;70.40;;;;;;5104914;28;20261;-60
2023/01/24 01:25:59;;;;;;;5.55;4.97;;;17.00;64.20;;;;;;5092830;28;20196;-59
2023/01/24 01:28:49;;;;;;;8.00;6.15;;;16.90;63.90;;;;;;5093085;28;20203;-59
2023/01/24 01:31:37;;;;;;;6.78;4.63;;;16.90;63.90;;;;;;5093152;28;20617;-60
2023/01/24 01:34:25;;;;;;;7.45;5.57;;;16.80;64.40;;;;;;5092976;28;20704;-59
2023/01/24 01:37:13;;;;;;;4.43;3.60;;;16.80;64.40;;;;;;5092477;28;20357;-59
2023/01/24 01:40:02;;;;;;;4.40;3.83;;;16.70;65.90;;;;;;5091974;28;20196;-59
2023/01/24 01:42:53;;;;;;;5.88;4.35;;;16.60;66.10;;;;;;5092615;28;20231;-59
2023/01/24 01:45:44;;;;;;;4.85;3.63;;;16.50;66.20;;;;;;5092946;28;20192;-59
2023/01/24 01:48:38;;;;;;;5.13;4.32;;;16.50;66.50;;;;;;5092882;28;20207;-59
2023/01/24 01:51:32;;;;;;;9.57;4.22;;;16.50;66.50;;;;;;5092071;28;20305;-59
2023/01/24 01:54:25;;;;;;;5.07;4.43;;;16.60;66.50;;;;;;5092063;28;20600;-60
2023/01/24 01:57:16;;;;;;;5.15;4.30;;;16.60;66.40;;;;;;5092899;28;20224;-59
2023/01/24 02:00:09;;;;;;;7.18;4.05;;;16.80;66.40;;;;;;5091723;28;20232;-59
2023/01/24 02:06:07;;;;;;;4.35;3.78;;;16.90;66.20;;;;;;5090989;28;20196;-59
2023/01/24 02:08:56;;;;;;;5.70;3.83;;;16.90;66.00;;;;;;5092031;28;20275;-60
2023/01/24 02:11:45;;;;;;;4.40;4.00;;;17.00;65.90;;;;;;5091035;28;20256;-60
2023/01/24 02:17:41;;;;;;;6.85;4.38;;;17.00;65.70;;;;;;5092250;28;20715;-59
2023/01/24 02:20:37;;;;;;;6.10;4.22;;;17.00;65.60;;;;;;5091927;28;20192;-59
2023/01/24 02:23:51;;;;;;;8.88;4.57;;;17.00;65.50;;;;;;5092268;28;20231;-59
2023/01/24 02:26:41;;;;;;;5.15;4.03;;;17.00;65.40;;;;;;5086470;28;20208;-59
2023/01/24 02:29:29;;;;;;;5.03;3.95;;;17.00;65.70;;;;;;5072199;28;20231;-59
2023/01/24 02:32:18;;;;;;;5.78;4.32;;;17.10;65.50;;;;;;5072610;28;20200;-59
2023/01/24 02:35:07;;;;;;;4.97;4.32;;;17.00;65.40;;;;;;5071000;28;20244;-59
2023/01/24 02:37:58;;;;;;;4.78;3.75;;;17.00;65.40;;;;;;5072585;28;20581;-59
2023/01/24 02:40:49;;;;;;;4.75;3.90;;;17.00;68.60;;;;;;5071592;28;20207;-60
2023/01/24 02:43:43;;;;;;;6.65;5.15;;;17.10;65.20;;;;;;5071210;28;20224;-59
2023/01/24 02:46:31;;;;;;;7.28;5.25;;;17.00;63.60;;;;;;5072375;28;20238;-59
2023/01/24 02:49:19;;;;;;;8.07;4.85;;;17.00;63.70;;;;;;5072516;28;20594;-59
2023/01/24 02:55:15;;;;;;;8.48;5.85;;;16.90;63.90;;;;;;5071450;28;20371;-59
2023/01/24 02:58:07;;;;;;;6.07;4.63;;;16.80;64.40;;;;;;5071964;28;20653;-60
2023/01/24 03:00:57;;;;;;;5.82;5.10;;;16.80;63.80;;;;;;5071949;28;20278;-59
2023/01/24 03:03:46;;;;;;;6.25;4.57;;;16.70;64.20;;;;;;5071158;28;20224;-59
2023/01/24 03:06:34;;;;;;;5.13;3.80;;;16.60;65.60;;;;;;5071410;28;20259;-60
2023/01/24 03:09:33;;;;;;;4.47;3.72;;;16.60;66.00;;;;;;5071021;28;20599;-59
2023/01/24 03:37:10;;;;;;;5.43;4.32;;;16.80;65.80;;;;;;5074941;28;20220;-59
2023/01/24 03:40:00;;;;;;;5.88;4.05;;;16.80;65.60;;;;;;5074182;28;20211;-60
2023/01/24 03:42:48;;;;;;;7.30;3.97;;;16.80;65.60;;;;;;5073880;28;20280;-59
2023/01/24 03:45:38;;;;;;;5.07;3.95;;;16.80;65.50;;;;;;5074234;28;20208;-59
2023/01/24 03:48:34;;;;;;;4.30;3.83;;;16.90;65.50;;;;;;5074587;28;20578;-60
2023/01/24 03:54:29;;;;;;;5.35;4.00;;;17.00;65.40;;;;;;5074599;28;20220;-59
2023/01/24 03:57:17;;;;;;;7.20;4.68;;;17.00;65.30;;;;;;5074689;28;20274;-60
2023/01/24 04:00:06;;;;;;;5.00;4.38;;;17.00;63.90;;;;;;5074009;28;20201;-59
2023/01/24 04:02:55;;;;;;;8.40;4.53;;;16.90;64.50;;;;;;5074489;28;20258;-59
2023/01/24 04:05:43;;;;;;;6.03;4.05;;;17.00;63.50;;;;;;5074773;28;20209;-59
2023/01/24 04:08:32;;;;;;;4.65;4.05;;;16.90;64.30;;;;;;5074627;28;20314;-59
2023/01/24 04:11:20;;;;;;;8.18;5.75;;;16.90;63.30;;;;;;5075011;28;20331;-59
2023/01/24 04:14:08;;;;;;;5.60;4.47;;;16.80;62.80;;;;;;5074047;28;20217;-59
2023/01/24 04:16:56;;;;;;;5.45;4.70;;;17.80;63.90;;;;;;5074211;28;20279;-59
2023/01/24 04:19:44;;;;;;;4.90;4.00;;;16.70;63.10;;;;;;5073080;28;20739;-60
2023/01/24 04:22:32;;;;;;;5.90;3.92;;;16.60;63.20;;;;;;5073702;28;20236;-59
2023/01/24 04:25:22;;;;;;;4.93;4.00;;;16.50;63.70;;;;;;5074907;28;20623;-59
2023/01/24 04:28:11;;;;;;;5.38;3.78;;;16.40;65.60;;;;;;5073277;28;20614;-61
2023/01/24 04:31:00;;;;;;;5.15;4.05;;;16.40;65.80;;;;;;5073204;28;20990;-59
2023/01/24 04:33:48;;;;;;;4.43;3.58;;;16.40;66.00;;;;;;5073567;28;20216;-60
2023/01/24 04:36:36;;;;;;;4.32;3.45;;;16.40;66.00;;;;;;5073593;28;20226;-59
2023/01/24 04:39:25;;;;;;;5.45;4.32;;;16.50;65.90;;;;;;5073003;28;20262;-60
2023/01/24 04:42:14;;;;;;;5.15;4.10;;;16.50;65.90;;;;;;5073706;28;20692;-60
2023/01/24 04:45:02;;;;;;;4.35;3.80;;;16.60;65.90;;;;;;5073276;28;20708;-60
2023/01/24 04:47:50;;;;;;;5.75;4.13;;;16.60;65.70;;;;;;5073695;28;20197;-59
2023/01/24 04:50:38;;;;;;;4.72;4.28;;;16.60;65.50;;;;;;5072913;28;20205;-60
2023/01/24 04:53:26;;;;;;;5.90;3.85;;;16.60;65.50;;;;;;5072592;28;20685;-59
2023/01/24 04:56:14;;;;;;;4.25;3.50;;;16.70;65.40;;;;;;5073108;28;20243;-59
2023/01/24 04:59:04;;;;;;;3.45;3.05;;;16.70;65.30;;;;;;5074095;28;20286;-60
2023/01/24 05:01:52;;;;;;;5.70;4.35;;;16.70;65.20;;;;;;5065104;28;20204;-60
2023/01/24 05:04:40;;;;;;;5.53;3.70;;;16.70;65.30;;;;;;5072673;28;20727;-59
2023/01/24 05:07:28;;;;;;;4.68;4.10;;;16.70;65.20;;;;;;5073444;28;20207;-59
2023/01/24 05:10:16;;;;;;;4.65;3.95;;;16.70;65.10;;;;;;5073161;28;20322;-59
2023/01/24 05:13:04;;;;;;;3.78;3.35;;;16.60;71.40;;;;;;5072552;28;20762;-61
2023/01/24 05:15:54;;;;;;;5.25;3.35;;;16.70;65.10;;;;;;5072523;28;20621;-60
2023/01/24 05:18:42;;;;;;;5.10;3.25;;;16.80;63.60;;;;;;5073307;28;20209;-60
2023/01/24 05:21:31;;;;;;;4.07;3.35;;;16.80;64.90;;;;;;5072739;28;20197;-59
2023/01/24 05:24:19;;;;;;;4.70;3.58;;;16.80;64.80;;;;;;5072781;28;20227;-59
2023/01/24 05:27:08;;;;;;;5.45;3.70;;;16.80;64.50;;;;;;5072582;28;20192;-59
2023/01/24 05:29:56;;;;;;;5.47;4.35;;;16.70;64.70;;;;;;5072434;28;20254;-59
2023/01/24 05:32:45;;;;;;;5.70;3.75;;;16.70;64.70;;;;;;5073152;28;20205;-59
2023/01/24 05:35:33;;;;;;;4.47;4.00;;;16.70;64.70;;;;;;5072403;28;20193;-60
2023/01/24 05:38:21;;;;;;;5.43;3.83;;;16.60;63.80;;;;;;5078118;28;20735;-60
2023/01/24 05:41:12;;;;;;;5.00;3.85;;;16.60;63.70;;;;;;5092469;28;20207;-60
2023/01/24 05:44:00;;;;;;;4.13;3.60;;;16.50;65.30;;;;;;5085545;28;20229;-59
2023/01/24 05:46:48;;;;;;;4.80;3.55;;;16.40;65.50;;;;;;5081667;28;20469;-59
2023/01/24 05:49:37;;;;;;;4.13;3.58;;;16.40;65.70;;;;;;5072421;28;20673;-59
2023/01/24 05:52:25;;;;;;;4.43;3.92;;;16.30;65.70;;;;;;5072922;28;20644;-59
2023/01/24 05:55:13;;;;;;;4.57;3.85;;;16.40;65.70;;;;;;5072145;28;20458;-59
2023/01/24 05:58:01;;;;;;;4.38;3.60;;;16.40;65.60;;;;;;5072195;28;20303;-59
2023/01/24 06:00:49;;;;;;;4.65;3.53;;;16.40;65.50;;;;;;5072815;28;20193;-60
2023/01/24 06:03:39;;;;;;;4.50;3.72;;;16.50;65.50;;;;;;5071773;28;20225;-59
2023/01/24 06:06:28;;;;;;;5.05;3.50;;;16.50;65.40;;;;;;5072151;28;20205;-59
2023/01/24 06:09:16;;;;;;;4.93;3.97;;;16.50;65.40;;;;;;5071121;28;20193;-59
2023/01/24 06:12:05;;;;;;;4.53;3.33;;;16.50;65.20;;;;;;5071286;28;20279;-59
2023/01/24 06:14:53;;;;;;;5.13;3.20;;;16.60;65.30;;;;;;5072276;28;20303;-59
2023/01/24 06:17:41;;;;;;;5.03;3.58;;;16.60;65.10;;;;;;5072671;28;20224;-60
2023/01/24 06:20:29;;;;;;;3.65;3.17;;;16.70;65.10;;;;;;5071779;28;20236;-59
2023/01/24 06:23:25;;;;;;;7.03;3.60;;;16.70;65.00;;;;;;5071134;28;20303;-59
2023/01/24 06:26:13;;;;;;;4.10;3.67;;;16.80;64.80;;;;;;5071597;28;20200;-59
2023/01/24 06:29:02;;;;;;;3.90;3.13;;;16.80;64.40;;;;;;5073021;28;20279;-59
2023/01/24 06:31:58;;;;;;;8.80;3.75;;;16.90;64.60;;;;;;5071949;28;20201;-60
2023/01/24 06:35:07;;;;;;;4.28;3.75;;;16.90;63.80;;;;;;5072720;28;20220;-60
2023/01/24 06:37:57;;;;;;;5.35;3.50;;;16.90;64.10;;;;;;5089414;28;20658;-59
2023/01/24 06:40:49;;;;;;;4.95;3.78;;;16.80;63.50;;;;;;5086666;28;20196;-59
2023/01/24 06:43:38;;;;;;;6.78;4.88;;;16.80;63.30;;;;;;5091024;28;20715;-59
2023/01/24 06:46:26;;;;;;;4.75;3.28;;;16.70;61.90;;;;;;5086259;28;20200;-59
2023/01/24 06:49:14;;;;;;;9.30;4.50;;;16.60;63.20;;;;;;5085404;28;20211;-59
2023/01/24 06:52:03;;;;;;;4.25;3.70;;;16.60;63.10;;;;;;5091994;28;20200;-59
2023/01/24 06:54:51;;;;;;;4.22;3.22;;;16.40;62.30;;;;;;5117975;22;20916;-64
2023/01/24 06:57:41;;;;;;;5.05;4.03;;;16.40;63.70;;;;;;5110617;28;20701;-63
2023/01/24 07:00:29;;;;;;;5.28;3.53;;;16.30;65.20;;;;;;5110014;28;20320;-62
2023/01/24 07:03:17;;;;;;;6.13;3.50;;;16.20;72.60;;;;;;5106344;28;20728;-62
2023/01/24 07:06:05;;;;;;;5.85;3.22;;;16.20;65.50;;;;;;5112111;28;20195;-65
2023/01/24 07:08:54;;;;;;;4.18;3.50;;;16.30;65.90;;;;;;5107017;28;20741;-62
2023/01/24 07:11:42;;;;;;;8.00;4.05;;;16.50;66.00;;;;;;5108096;28;20249;-63
2023/01/24 07:14:31;;;;;;;5.10;3.88;;;16.60;66.00;;;;;;5111110;27;20298;-63
2023/01/24 07:17:19;;;;;;;8.55;3.85;;;16.80;65.80;;;;;;5115190;27;20205;-63
2023/01/24 07:20:09;;;;;;;9.00;3.78;;;17.00;65.60;;;;;;5114186;28;20672;-62
2023/01/24 07:22:59;;;;;;;7.45;3.95;;;17.20;65.30;;;;;;5114081;28;20199;-62
2023/01/24 07:25:48;;;;;;;4.93;3.53;;;17.40;65.00;;;;;;5107653;28;20198;-63
2023/01/24 07:28:36;;;;;;;5.80;3.53;;;17.60;65.90;;;;;;5105761;28;20198;-64
2023/01/24 07:31:25;;;;;;;4.68;3.38;;;17.60;65.00;;;;;;5100182;27;20295;-63
2023/01/24 07:34:14;;;;;;;6.03;3.33;;;17.80;64.50;;;;;;5107898;28;20300;-62
2023/01/24 07:37:07;;;;;;;6.68;3.83;;;17.90;64.30;;;;;;5112362;28;20675;-63
2023/01/24 07:39:55;;;;;;;3.92;3.47;;;17.90;64.00;;;;;;5109504;28;20211;-61
2023/01/24 07:42:43;;;;;;;6.93;3.92;;;18.00;64.10;;;;;;5103840;28;20264;-63
2023/01/24 07:45:34;;;;;;;6.18;4.18;;;18.10;64.00;;;;;;5103846;28;20223;-61
2023/01/24 07:48:24;;;;;;;11.07;3.67;;;18.30;64.00;;;;;;5107767;28;20272;-62
2023/01/24 07:51:12;;;;;;;6.38;3.47;;;18.40;63.90;;;;;;5109554;28;20726;-64
2023/01/24 07:54:00;;;;;;;5.32;3.75;;;18.60;63.70;;;;;;5104976;28;20579;-58
2023/01/24 07:56:48;;;;;;;6.18;3.47;;;18.70;63.50;;;;;;5107973;28;20203;-62
2023/01/24 07:59:36;;;;;;;3.97;3.60;;;18.70;63.40;;;;;;5103737;28;20216;-65
2023/01/24 08:02:26;;;;;;;4.05;3.45;;;18.80;63.50;;;;;;5110495;28;20539;-61
2023/01/24 08:05:16;;;;;;;7.15;3.40;;;18.90;63.70;;;;;;5108788;28;20219;-61
2023/01/24 08:08:04;;;;;;;6.20;3.50;;;19.00;63.70;;;;;;5111722;28;20911;-61
2023/01/24 08:10:52;;;;;;;4.43;3.40;;;19.00;63.30;;;;;;5109002;28;20286;-60
2023/01/24 08:13:40;;;;;;;6.55;3.50;;;19.10;63.30;;;;;;5107000;28;20219;-61
2023/01/24 08:16:28;;;;;;;5.80;3.85;;;19.20;63.10;;;;;;5104896;28;20642;-64
2023/01/24 08:19:16;;;;;;;9.25;3.15;;;19.30;63.10;;;;;;5109903;28;20223;-61
2023/01/24 08:22:26;;;;;;;5.25;3.53;;;19.40;63.00;;;;;;5099389;28;20695;-64
2023/01/24 08:25:14;;;;;;;6.03;3.45;;;19.40;62.90;;;;;;5100462;28;20243;-61
2023/01/24 08:28:02;;;;;;;4.97;3.53;;;19.50;62.80;;;;;;5108140;28;20635;-60
2023/01/24 08:30:50;;;;;;;5.65;3.35;;;19.60;62.70;;;;;;5110052;28;20218;-61
2023/01/24 08:33:39;;;;;;;5.80;3.35;;;19.60;62.50;;;;;;5105690;28;20308;-62
2023/01/24 08:36:27;;;;;;;5.57;4.28;;;19.60;62.50;;;;;;5110037;28;20252;-60
2023/01/24 08:39:16;;;;;;;11.80;3.72;;;19.70;62.40;;;;;;5109764;28;20706;-61
2023/01/24 08:42:14;;;;;;;6.40;3.80;;;19.70;62.20;;;;;;5112801;28;20222;-60
2023/01/24 08:45:03;;;;;;;3.92;3.22;;;19.80;62.70;;;;;;5104045;28;20288;-61
2023/01/24 08:47:52;;;;;;;6.93;4.03;;;19.80;63.00;;;;;;5107368;28;20208;-61
2023/01/24 08:50:40;;;;;;;8.13;2.90;;;19.90;62.80;;;;;;5107024;28;20267;-60
2023/01/24 08:53:31;;;;;;;5.65;3.22;;;19.80;67.90;;;;;;5107668;28;20695;-59
2023/01/24 08:56:23;;;;;;;8.57;3.67;;;20.00;63.20;;;;;;5110969;28;20208;-60
2023/01/24 08:59:11;;;;;;;5.63;3.50;;;20.10;63.30;;;;;;5104635;28;20230;-59
2023/01/24 09:01:59;;;;;;;4.97;4.00;;;20.10;63.00;;;;;;5110062;28;20203;-59
2023/01/24 09:04:50;;;;;;;5.30;3.25;;;20.10;63.00;;;;;;5110773;28;20234;-60
2023/01/24 09:07:40;;;;;;;4.70;4.00;;;20.10;63.00;;;;;;5093134;28;20203;-59
2023/01/24 09:10:28;;;;;;;5.90;3.28;;;20.10;63.00;;;;;;5095667;28;20195;-59
2023/01/24 09:13:18;;;;;;;8.25;3.67;;;20.20;62.90;;;;;;5109007;28;20199;-60
2023/01/24 09:16:06;;;;;;;4.65;3.92;;;20.20;62.90;;;;;;5109203;28;20225;-58
2023/01/24 09:18:55;;;;;;;6.35;3.45;;;20.20;62.60;;;;;;5097458;28;20200;-59
2023/01/24 09:21:24;;;;;;;4.35;3.53;;;20.20;62.90;;;;;;5104648;28;20573;-59
2023/01/24 09:23:54;;;;;;;5.00;3.38;;;20.20;62.80;;;;;;5109725;28;20311;-60
2023/01/24 09:26:22;;;;;;;7.35;3.40;;;20.20;63.00;;;;;;5102300;28;20299;-60
2023/01/24 09:28:51;;;;;;;11.57;3.92;;;20.20;62.80;;;;;;5106974;28;20229;-60
2023/01/24 09:31:19;;;;;;;10.73;4.00;;;20.20;63.00;;;;;;5105414;28;20290;-61
2023/01/24 09:33:47;;;;;;;4.68;3.50;;;20.30;63.70;;;;;;5103494;28;20226;-61
2023/01/24 09:36:27;;;;;;;4.43;4.03;;;20.40;63.80;;;;;;5110271;27;20192;-62
2023/01/24 09:38:56;;;;;;;8.00;3.47;;;20.50;63.60;;;;;;5103262;28;20198;-61
2023/01/24 09:41:44;;;;;;;3.45;3.15;;;20.50;63.10;;;;;;5102735;28;20207;-61
2023/01/24 09:44:21;;;;;;;4.63;3.63;;;20.50;62.80;;;;;;5101078;28;20268;-61
2023/01/24 09:46:53;;;;;;;5.82;3.70;;;20.50;62.60;;;;;;5097924;28;20248;-59
2023/01/24 09:49:27;;;;;;;7.28;3.50;;;20.50;62.80;;;;;;5106605;28;20199;-61
2023/01/24 09:51:55;;;;;;;8.13;3.50;;;20.60;62.80;;;;;;5105572;28;20211;-62
2023/01/24 09:54:32;;;;;;;4.95;3.72;;;20.50;62.60;;;;;;5111275;28;20268;-59
2023/01/24 09:57:00;;;;;;;7.88;3.20;;;20.60;62.60;;;;;;5112467;28;20209;-60
2023/01/24 09:59:38;;;;;;;7.32;3.33;;;20.50;62.30;;;;;;5110984;28;20248;-60
2023/01/24 10:02:17;;;;;;;3.80;3.50;;;20.60;62.50;;;;;;5110886;28;20281;-61
2023/01/24 10:04:47;;;;;;;5.55;3.42;;;20.60;62.50;;;;;;5108506;28;20231;-61
2023/01/24 10:07:44;;;;;;;6.97;3.70;;;20.60;62.50;;;;;;5109137;28;20203;-62
2023/01/24 10:10:35;;;;;;;5.75;4.10;;;20.70;62.40;;;;;;5108742;28;20233;-61
2023/01/24 10:13:24;;;;;;;6.03;4.55;;;20.70;62.10;;;;;;5096906;28;20210;-61
2023/01/24 10:16:05;;;;;;;5.28;3.83;;;20.70;62.20;;;;;;5099392;28;20207;-58
2023/01/24 10:18:47;;;;;;;4.38;3.20;;;20.80;62.40;;;;;;5099550;28;20191;-61
2023/01/24 10:21:39;;;;;;;5.32;4.05;;;20.80;62.40;;;;;;5101033;28;20215;-60
2023/01/24 10:24:13;;;;;;;8.25;3.83;;;20.80;62.40;;;;;;5104817;28;20231;-58
2023/01/24 10:26:47;;;;;;;22.30;5.97;;;20.80;62.40;;;;;;5110983;28;20203;-61
2023/01/24 10:29:19;;;;;;;15.25;4.72;;;20.80;62.40;;;;;;5112461;28;20199;-62
2023/01/24 10:31:55;;;;;;;8.82;4.07;;;20.80;62.40;;;;;;5106726;28;20200;-62
2023/01/24 10:34:29;;;;;;;7.90;3.75;;;20.80;62.10;;;;;;5111333;28;20210;-60
2023/01/24 10:37:01;;;;;;;5.30;3.90;;;20.90;62.20;;;;;;5112153;28;20207;-60
2023/01/24 10:39:29;;;;;;;7.25;3.92;;;20.80;62.10;;;;;;5107861;28;20196;-60
2023/01/24 10:41:57;;;;;;;5.70;3.60;;;20.90;62.30;;;;;;5109361;28;20203;-59
2023/01/24 10:44:27;;;;;;;7.60;4.05;;;20.90;62.20;;;;;;5109233;28;20227;-63
2023/01/24 10:47:18;;;;;;;4.15;3.38;;;20.90;62.20;;;;;;5110092;28;20209;-59
2023/01/24 10:49:52;;;;;;;5.63;3.35;;;21.00;62.30;;;;;;5109954;28;20240;-59
2023/01/24 10:52:23;;;;;;;11.43;4.63;;;21.00;62.20;;;;;;5108776;28;20298;-59
2023/01/24 10:54:53;;;;;;;4.28;3.53;;;21.10;61.90;;;;;;5113858;28;20317;-59
2023/01/24 10:57:31;;;;;;;4.57;3.70;;;21.10;62.20;;;;;;5107976;28;20260;-60
2023/01/24 11:00:05;;;;;;;6.70;3.90;;;21.20;61.50;;;;;;5113681;28;20296;-59
2023/01/24 11:02:35;;;;;;;4.35;3.72;;;21.20;61.20;;;;;;5112672;28;20195;-59
2023/01/24 11:05:06;;;;;;;7.18;3.88;;;21.20;60.80;;;;;;5109082;28;20307;-59
2023/01/24 11:07:38;;;;;;;8.75;3.88;;;21.20;60.80;;;;;;5107889;28;20222;-60
2023/01/24 11:10:19;;;;;;;6.05;3.80;;;21.20;60.90;;;;;;5106073;28;20195;-59
2023/01/24 11:12:53;;;;;;;7.65;4.43;;;21.10;60.70;;;;;;5115073;28;20199;-59
2023/01/24 11:15:26;;;;;;;5.53;4.07;;;21.10;60.90;;;;;;5103549;27;20246;-59
2023/01/24 11:18:07;;;;;;;8.52;4.22;;;21.20;60.80;;;;;;5114386;28;20259;-61
2023/01/24 11:20:36;;;;;;;6.85;4.60;;;21.20;60.60;;;;;;5112268;28;20214;-61
2023/01/24 11:23:06;;;;;;;5.90;3.42;;;21.20;60.50;;;;;;5111501;28;20203;-62
2023/01/24 11:25:34;;;;;;;9.05;4.30;;;21.20;60.50;;;;;;5100982;28;20224;-61
2023/01/24 11:28:03;;;;;;;7.80;4.13;;;21.20;60.40;;;;;;5103220;28;20196;-59
2023/01/24 11:30:38;;;;;;;10.07;4.80;;;21.20;60.70;;;;;;5109295;28;20214;-62
2023/01/24 11:33:23;;;;;;;13.02;4.32;;;21.20;60.90;;;;;;5109794;28;20245;-62
2023/01/24 11:35:55;;;;;;;8.15;4.53;;;21.20;61.10;;;;;;5110061;28;20274;-62
2023/01/24 11:38:27;;;;;;;9.63;4.25;;;21.20;60.90;;;;;;5119753;27;20220;-62
2023/01/24 11:41:11;;;;;;;12.95;5.22;;;21.30;61.40;;;;;;5110460;27;20219;-61
2023/01/24 11:43:58;;;;;;;9.75;4.53;;;21.20;61.00;;;;;;5109461;28;20243;-61
2023/01/24 11:46:45;;;;;;;10.27;4.88;;;21.30;61.10;;;;;;5111794;28;20281;-61
2023/01/24 11:49:41;;;;;;;10.95;4.88;;;21.20;61.10;;;;;;5103046;28;20290;-62
2023/01/24 11:52:29;;;;;;;12.68;5.22;;;21.20;61.00;;;;;;5112249;28;20283;-61
2023/01/24 11:55:08;;;;;;;17.08;5.20;;;21.20;61.10;;;;;;5102070;28;20266;-60
2023/01/24 11:57:47;;;;;;;12.82;5.13;;;21.30;61.40;;;;;;5095557;27;20408;-61
2023/01/24 12:00:24;;;;;;;14.80;4.40;;;21.30;61.40;;;;;;5098968;28;20196;-61
2023/01/24 12:03:10;;;;;;;10.95;5.53;;;21.30;61.30;;;;;;5111184;28;20694;-63
2023/01/24 12:05:52;;;;;;;11.45;4.82;;;21.30;61.40;;;;;;5109789;28;20264;-64
2023/01/24 12:08:36;;;;;;;10.68;5.45;;;21.40;61.30;;;;;;5105527;27;20252;-64
2023/01/24 12:11:13;;;;;;;10.15;4.60;;;21.40;61.20;;;;;;5102295;28;20282;-63
2023/01/24 12:14:27;;;;;;;17.80;5.28;;;21.40;61.20;;;;;;5104880;28;20233;-63
2023/01/24 12:17:05;;;;;;;17.77;6.47;;;21.40;61.20;;;;;;5102770;28;20282;-65
2023/01/24 12:20:02;;;;;;;17.08;5.45;;;21.40;61.30;;;;;;5103915;28;20199;-66
2023/01/24 12:22:33;;;;;;;17.05;5.93;;;21.40;61.30;;;;;;5104146;28;20243;-65
2023/01/24 12:25:06;;;;;;;15.93;6.38;;;21.40;61.20;;;;;;5112460;28;20215;-62
2023/01/24 12:27:37;;;;;;;14.25;5.60;;;21.30;61.20;;;;;;5096648;28;20302;-62
2023/01/24 12:30:14;;;;;;;11.05;5.10;;;21.30;61.20;;;;;;5105131;28;20286;-62
2023/01/24 12:32:47;;;;;;;13.05;5.22;;;21.30;61.30;;;;;;5112550;28;20206;-62
2023/01/24 12:35:20;;;;;;;15.63;5.55;;;21.20;61.30;;;;;;5112937;28;20310;-64
2023/01/24 12:37:56;;;;;;;10.63;5.60;;;21.20;61.30;;;;;;5107947;28;20199;-69
2023/01/24 12:40:47;;;;;;;14.25;5.35;;;21.20;61.50;;;;;;5095986;28;20200;-62
2023/01/24 12:43:22;;;;;;;15.82;6.22;;;21.20;61.30;;;;;;5112594;28;20210;-64
2023/01/24 12:46:02;;;;;;;11.73;5.47;;;21.30;61.50;;;;;;5112942;28;20210;-63
2023/01/24 12:48:40;;;;;;;10.27;6.13;;;21.30;61.50;;;;;;5112194;28;20191;-63
2023/01/24 12:51:21;;;;;;;14.85;6.70;;;21.30;61.50;;;;;;5099359;28;20203;-63
2023/01/24 12:54:06;;;;;;;10.02;5.15;;;21.30;61.30;;;;;;5107099;28;20284;-65
2023/01/24 12:56:47;;;;;;;10.65;6.25;;;21.30;61.30;;;;;;5111045;28;20225;-64
2023/01/24 12:59:20;;;;;;;16.23;6.30;;;21.30;61.40;;;;;;5111047;28;20240;-62
2023/01/24 13:02:15;;;;;;;15.38;6.43;;;21.30;61.50;;;;;;5110433;28;20218;-62
2023/01/24 13:04:51;;;;;;;11.38;5.72;;;21.40;61.40;;;;;;5097422;28;20216;-62
2023/01/24 13:07:30;;;;;;;12.73;5.43;;;21.40;61.40;;;;;;5105744;28;20196;-62
2023/01/24 13:10:10;;;;;;;17.80;6.72;;;21.30;61.20;;;;;;5107030;28;20215;-64
2023/01/24 13:12:39;;;;;;;16.23;6.43;;;21.30;61.20;;;;;;5110297;28;20274;-63
2023/01/24 13:15:17;;;;;;;24.08;6.93;;;21.30;61.40;;;;;;5106904;28;20288;-63
2023/01/24 13:18:00;;;;;;;16.25;6.70;;;21.30;61.30;;;;;;5105782;28;20227;-63
2023/01/24 13:20:54;;;;;;;26.83;7.07;;;21.30;61.30;;;;;;5100744;27;20244;-64
2023/01/24 13:23:54;;;;;;;20.08;7.78;;;21.40;62.20;;;;;;5107056;28;20195;-64
2023/01/24 13:26:47;;;;;;;16.75;7.45;;;21.30;61.40;;;;;;5109356;28;20261;-61
2023/01/24 13:29:30;;;;;;;20.33;7.78;;;21.30;61.60;;;;;;5105427;28;20283;-61
2023/01/24 13:32:06;;;;;;;18.13;8.13;;;21.30;61.30;;;;;;5107397;28;20199;-62
2023/01/24 13:34:36;;;;;;;16.48;7.00;;;21.30;61.40;;;;;;5107715;28;20221;-63
2023/01/24 13:37:06;;;;;;;22.58;7.40;;;21.30;61.40;;;;;;5104354;28;20203;-62
2023/01/24 13:39:36;;;;;;;16.02;6.95;;;21.40;61.50;;;;;;5112404;28;20214;-62
2023/01/24 13:42:20;;;;;;;13.57;7.50;;;21.40;61.50;;;;;;5106323;28;20280;-62
2023/01/24 13:44:49;;;;;;;17.75;7.78;;;21.40;61.60;;;;;;5106384;28;20215;-62
2023/01/24 13:47:36;;;;;;;15.82;7.60;;;21.40;61.60;;;;;;5108247;28;20196;-65
2023/01/24 13:50:16;;;;;;;13.43;7.25;;;21.40;61.60;;;;;;5101146;28;20215;-60
2023/01/24 13:52:47;;;;;;;17.92;6.63;;;21.50;61.90;;;;;;5109064;28;20282;-63
2023/01/24 13:55:58;;;;;;;19.98;7.90;;;21.50;61.80;;;;;;5094359;28;20278;-63
2023/01/24 13:58:28;;;;;;;21.23;7.88;;;21.50;61.80;;;;;;5104063;27;20223;-64
2023/01/24 14:00:59;;;;;;;21.17;7.15;;;21.50;61.80;;;;;;5106808;28;20231;-62
2023/01/24 14:03:30;;;;;;;24.63;9.25;;;21.80;65.10;;;;;;5106984;28;20276;-63
2023/01/24 14:06:13;;;;;;;17.23;8.68;;;21.50;61.80;;;;;;5110974;28;20207;-64
2023/01/24 14:08:49;;;;;;;14.23;7.40;;;21.50;61.80;;;;;;5104212;28;20191;-64
2023/01/24 14:11:42;;;;;;;21.38;7.63;;;21.50;61.50;;;;;;5111334;28;20202;-63
2023/01/24 14:14:36;;;;;;;22.33;8.82;;;21.60;61.60;;;;;;5109167;28;20242;-64
2023/01/24 14:17:27;;;;;;;19.10;9.38;;;21.60;61.30;;;;;;5103767;28;20206;-62
2023/01/24 14:19:57;;;;;;;23.50;10.57;;;21.60;61.10;;;;;;5106739;28;20215;-62
2023/01/24 14:22:37;;;;;;;19.45;8.60;;;21.60;61.30;;;;;;5105745;28;20227;-63
2023/01/24 14:25:28;;;;;;;19.23;9.85;;;21.60;61.70;;;;;;5110299;28;20223;-61
2023/01/24 14:28:00;;;;;;;17.00;9.40;;;21.70;61.40;;;;;;5107728;28;20202;-63
2023/01/24 14:30:36;;;;;;;20.45;9.35;;;21.70;61.80;;;;;;5107166;28;20207;-64
2023/01/24 14:33:14;;;;;;;19.65;9.00;;;21.60;61.80;;;;;;5105496;28;20222;-63
2023/01/24 14:35:55;;;;;;;16.73;8.25;;;21.60;61.80;;;;;;5108968;28;20199;-60
2023/01/24 14:38:23;;;;;;;17.67;9.27;;;21.70;61.80;;;;;;5108809;28;20202;-61
2023/01/24 14:40:53;;;;;;;18.08;8.57;;;21.80;61.60;;;;;;5103939;28;20306;-61
2023/01/24 14:43:25;;;;;;;19.60;9.57;;;22.00;62.50;;;;;;5114434;28;20227;-61
2023/01/24 14:45:55;;;;;;;20.10;9.80;;;21.80;61.30;;;;;;5106548;28;20203;-61
2023/01/24 14:48:24;;;;;;;23.63;9.20;;;21.90;61.40;;;;;;5101204;28;20203;-61
2023/01/24 14:51:04;;;;;;;21.73;8.75;;;21.90;61.40;;;;;;5108311;28;20203;-61